sensor_id;sensor_type;location;lat;lon;timestamp;P1;durP1;ratioP1;P2;durP2;ratioP2
11709;SDS011;5911;51.036;6.972;2022-10-16T00:01:10;4.80;;;2.97;;
11709;SDS011;5911;51.036;6.972;2022-10-16T00:03:39;5.03;;;3.00;;
11709;SDS011;5911;51.036;6.972;2022-10-16T00:06:09;4.25;;;3.08;;
11709;SDS011;5911;51.036;6.972;2022-10-16T00:08:39;3.57;;;2.77;;
11709;SDS011;5911;51.036;6.972;2022-10-16T00:11:08;3.17;;;2.47;;
11709;SDS011;5911;51.036;6.972;2022-10-16T00:13:38;3.20;;;2.83;;
11709;SDS011;5911;51.036;6.972;2022-10-16T00:16:07;6.10;;;3.03;;
11709;SDS011;5911;51.036;6.972;2022-10-16T00:18:36;2.67;;;2.30;;
11709;SDS011;5911;51.036;6.972;2022-10-16T00:21:04;5.03;;;2.73;;
11709;SDS011;5911;51.036;6.972;2022-10-16T00:23:34;2.47;;;1.73;;
11709;SDS011;5911;51.036;6.972;2022-10-16T00:26:05;4.03;;;1.90;;
11709;SDS011;5911;51.036;6.972;2022-10-16T00:28:35;2.07;;;1.87;;
11709;SDS011;5911;51.036;6.972;2022-10-16T00:31:04;2.70;;;1.97;;
11709;SDS011;5911;51.036;6.972;2022-10-16T00:33:32;1.60;;;1.50;;
11709;SDS011;5911;51.036;6.972;2022-10-16T00:36:00;2.70;;;1.97;;
11709;SDS011;5911;51.036;6.972;2022-10-16T00:38:28;2.63;;;1.67;;
11709;SDS011;5911;51.036;6.972;2022-10-16T00:40:56;3.65;;;2.00;;
11709;SDS011;5911;51.036;6.972;2022-10-16T00:43:36;5.50;;;2.10;;
11709;SDS011;5911;51.036;6.972;2022-10-16T00:46:09;3.83;;;2.00;;
11709;SDS011;5911;51.036;6.972;2022-10-16T00:48:43;3.50;;;1.70;;
11709;SDS011;5911;51.036;6.972;2022-10-16T00:51:16;4.35;;;2.10;;
11709;SDS011;5911;51.036;6.972;2022-10-16T00:53:46;5.97;;;2.10;;
11709;SDS011;5911;51.036;6.972;2022-10-16T00:56:15;4.23;;;2.20;;
11709;SDS011;5911;51.036;6.972;2022-10-16T00:58:45;3.40;;;2.37;;
11709;SDS011;5911;51.036;6.972;2022-10-16T01:01:13;2.50;;;2.30;;
11709;SDS011;5911;51.036;6.972;2022-10-16T01:03:41;5.60;;;2.47;;
11709;SDS011;5911;51.036;6.972;2022-10-16T01:06:11;2.50;;;2.30;;
11709;SDS011;5911;51.036;6.972;2022-10-16T01:11:44;2.93;;;2.47;;
11709;SDS011;5911;51.036;6.972;2022-10-16T01:14:19;3.77;;;2.60;;
11709;SDS011;5911;51.036;6.972;2022-10-16T01:16:53;2.77;;;2.40;;
11709;SDS011;5911;51.036;6.972;2022-10-16T01:19:28;3.25;;;2.25;;
11709;SDS011;5911;51.036;6.972;2022-10-16T01:22:08;2.37;;;2.20;;
11709;SDS011;5911;51.036;6.972;2022-10-16T01:24:38;2.20;;;2.00;;
11709;SDS011;5911;51.036;6.972;2022-10-16T01:27:12;3.37;;;2.20;;
11709;SDS011;5911;51.036;6.972;2022-10-16T01:29:44;4.73;;;2.00;;
11709;SDS011;5911;51.036;6.972;2022-10-16T01:32:20;2.73;;;1.90;;
11709;SDS011;5911;51.036;6.972;2022-10-16T01:34:56;2.10;;;1.83;;
11709;SDS011;5911;51.036;6.972;2022-10-16T01:37:32;2.53;;;1.80;;
11709;SDS011;5911;51.036;6.972;2022-10-16T01:40:02;5.55;;;2.70;;
11709;SDS011;5911;51.036;6.972;2022-10-16T01:42:36;5.70;;;4.70;;
11709;SDS011;5911;51.036;6.972;2022-10-16T01:45:06;3.67;;;2.53;;
11709;SDS011;5911;51.036;6.972;2022-10-16T01:47:37;4.53;;;1.90;;
11709;SDS011;5911;51.036;6.972;2022-10-16T01:50:07;3.97;;;1.90;;
11709;SDS011;5911;51.036;6.972;2022-10-16T01:52:37;3.60;;;1.90;;
11709;SDS011;5911;51.036;6.972;2022-10-16T01:55:09;2.93;;;1.93;;
11709;SDS011;5911;51.036;6.972;2022-10-16T01:57:41;5.50;;;1.90;;
11709;SDS011;5911;51.036;6.972;2022-10-16T02:00:13;3.63;;;1.67;;
11709;SDS011;5911;51.036;6.972;2022-10-16T02:02:44;3.45;;;2.20;;
11709;SDS011;5911;51.036;6.972;2022-10-16T02:05:16;4.18;;;3.15;;
11709;SDS011;5911;51.036;6.972;2022-10-16T02:07:49;2.75;;;2.30;;
11709;SDS011;5911;51.036;6.972;2022-10-16T02:10:17;3.20;;;2.00;;
11709;SDS011;5911;51.036;6.972;2022-10-16T02:12:48;2.67;;;2.13;;
11709;SDS011;5911;51.036;6.972;2022-10-16T02:15:21;4.88;;;1.95;;
11709;SDS011;5911;51.036;6.972;2022-10-16T02:17:49;5.85;;;1.90;;
11709;SDS011;5911;51.036;6.972;2022-10-16T02:20:17;3.58;;;1.80;;
11709;SDS011;5911;51.036;6.972;2022-10-16T02:22:49;3.17;;;2.20;;
11709;SDS011;5911;51.036;6.972;2022-10-16T02:25:20;3.57;;;1.90;;
11709;SDS011;5911;51.036;6.972;2022-10-16T02:27:53;1.83;;;1.70;;
11709;SDS011;5911;51.036;6.972;2022-10-16T02:30:25;3.53;;;1.85;;
11709;SDS011;5911;51.036;6.972;2022-10-16T02:32:59;1.50;;;1.40;;
11709;SDS011;5911;51.036;6.972;2022-10-16T02:35:30;4.95;;;1.83;;
11709;SDS011;5911;51.036;6.972;2022-10-16T02:37:58;2.17;;;1.80;;
11709;SDS011;5911;51.036;6.972;2022-10-16T02:40:26;4.30;;;1.77;;
11709;SDS011;5911;51.036;6.972;2022-10-16T02:42:56;2.10;;;1.90;;
11709;SDS011;5911;51.036;6.972;2022-10-16T02:45:24;2.78;;;1.92;;
11709;SDS011;5911;51.036;6.972;2022-10-16T02:47:52;3.30;;;2.23;;
11709;SDS011;5911;51.036;6.972;2022-10-16T02:50:19;2.70;;;1.67;;
11709;SDS011;5911;51.036;6.972;2022-10-16T02:52:48;3.33;;;1.67;;
11709;SDS011;5911;51.036;6.972;2022-10-16T02:55:15;3.30;;;1.83;;
11709;SDS011;5911;51.036;6.972;2022-10-16T02:57:43;2.73;;;1.77;;
11709;SDS011;5911;51.036;6.972;2022-10-16T03:00:14;5.93;;;2.07;;
11709;SDS011;5911;51.036;6.972;2022-10-16T03:02:43;3.13;;;1.90;;
11709;SDS011;5911;51.036;6.972;2022-10-16T03:05:11;1.87;;;1.47;;
11709;SDS011;5911;51.036;6.972;2022-10-16T03:07:39;1.60;;;1.50;;
11709;SDS011;5911;51.036;6.972;2022-10-16T03:10:07;1.60;;;1.50;;
11709;SDS011;5911;51.036;6.972;2022-10-16T03:12:35;3.10;;;1.70;;
11709;SDS011;5911;51.036;6.972;2022-10-16T03:15:03;1.50;;;1.40;;
11709;SDS011;5911;51.036;6.972;2022-10-16T03:17:34;3.07;;;1.80;;
11709;SDS011;5911;51.036;6.972;2022-10-16T03:20:02;3.83;;;1.77;;
11709;SDS011;5911;51.036;6.972;2022-10-16T03:22:30;6.37;;;1.70;;
11709;SDS011;5911;51.036;6.972;2022-10-16T03:24:58;2.00;;;1.63;;
11709;SDS011;5911;51.036;6.972;2022-10-16T03:27:26;5.40;;;1.30;;
11709;SDS011;5911;51.036;6.972;2022-10-16T03:29:55;5.37;;;1.70;;
11709;SDS011;5911;51.036;6.972;2022-10-16T03:32:22;7.33;;;1.50;;
11709;SDS011;5911;51.036;6.972;2022-10-16T03:34:52;4.93;;;1.53;;
11709;SDS011;5911;51.036;6.972;2022-10-16T03:37:22;1.30;;;1.20;;
11709;SDS011;5911;51.036;6.972;2022-10-16T03:39:51;3.17;;;1.40;;
11709;SDS011;5911;51.036;6.972;2022-10-16T03:42:19;2.67;;;1.40;;
11709;SDS011;5911;51.036;6.972;2022-10-16T03:44:46;3.27;;;1.40;;
11709;SDS011;5911;51.036;6.972;2022-10-16T03:47:14;2.80;;;1.53;;
11709;SDS011;5911;51.036;6.972;2022-10-16T03:49:46;2.77;;;1.70;;
11709;SDS011;5911;51.036;6.972;2022-10-16T03:52:15;2.63;;;1.50;;
11709;SDS011;5911;51.036;6.972;2022-10-16T03:54:49;3.60;;;1.90;;
11709;SDS011;5911;51.036;6.972;2022-10-16T03:57:16;4.60;;;1.97;;
11709;SDS011;5911;51.036;6.972;2022-10-16T03:59:44;2.50;;;2.00;;
11709;SDS011;5911;51.036;6.972;2022-10-16T04:02:12;3.80;;;2.70;;
11709;SDS011;5911;51.036;6.972;2022-10-16T04:04:40;4.50;;;2.83;;
11709;SDS011;5911;51.036;6.972;2022-10-16T04:07:08;4.73;;;2.30;;
11709;SDS011;5911;51.036;6.972;2022-10-16T04:09:37;4.30;;;2.63;;
11709;SDS011;5911;51.036;6.972;2022-10-16T04:12:05;7.03;;;2.50;;
11709;SDS011;5911;51.036;6.972;2022-10-16T04:14:33;2.80;;;2.30;;
11709;SDS011;5911;51.036;6.972;2022-10-16T04:17:01;3.87;;;2.30;;
11709;SDS011;5911;51.036;6.972;2022-10-16T04:19:29;3.60;;;2.20;;
11709;SDS011;5911;51.036;6.972;2022-10-16T04:21:56;5.13;;;2.40;;
11709;SDS011;5911;51.036;6.972;2022-10-16T04:24:24;3.13;;;2.63;;
11709;SDS011;5911;51.036;6.972;2022-10-16T04:26:53;4.77;;;2.80;;
11709;SDS011;5911;51.036;6.972;2022-10-16T04:29:21;3.87;;;2.50;;
11709;SDS011;5911;51.036;6.972;2022-10-16T04:31:49;7.20;;;2.67;;
11709;SDS011;5911;51.036;6.972;2022-10-16T04:34:16;7.07;;;3.07;;
11709;SDS011;5911;51.036;6.972;2022-10-16T04:36:46;4.80;;;2.77;;
11709;SDS011;5911;51.036;6.972;2022-10-16T04:39:14;5.90;;;2.97;;
11709;SDS011;5911;51.036;6.972;2022-10-16T04:41:42;5.93;;;2.73;;
11709;SDS011;5911;51.036;6.972;2022-10-16T04:44:11;4.43;;;2.80;;
11709;SDS011;5911;51.036;6.972;2022-10-16T04:46:39;6.33;;;2.60;;
11709;SDS011;5911;51.036;6.972;2022-10-16T04:49:07;4.40;;;2.20;;
11709;SDS011;5911;51.036;6.972;2022-10-16T04:51:34;2.70;;;2.00;;
11709;SDS011;5911;51.036;6.972;2022-10-16T04:54:02;2.90;;;1.83;;
11709;SDS011;5911;51.036;6.972;2022-10-16T04:56:30;2.93;;;1.70;;
11709;SDS011;5911;51.036;6.972;2022-10-16T04:58:58;3.17;;;1.80;;
11709;SDS011;5911;51.036;6.972;2022-10-16T05:01:27;2.27;;;1.77;;
11709;SDS011;5911;51.036;6.972;2022-10-16T05:03:55;4.87;;;2.10;;
11709;SDS011;5911;51.036;6.972;2022-10-16T05:06:23;3.27;;;2.53;;
11709;SDS011;5911;51.036;6.972;2022-10-16T05:08:51;5.03;;;2.60;;
11709;SDS011;5911;51.036;6.972;2022-10-16T05:11:18;6.47;;;2.93;;
11709;SDS011;5911;51.036;6.972;2022-10-16T05:13:46;4.93;;;3.07;;
11709;SDS011;5911;51.036;6.972;2022-10-16T05:16:19;6.90;;;2.93;;
11709;SDS011;5911;51.036;6.972;2022-10-16T05:18:48;4.40;;;3.43;;
11709;SDS011;5911;51.036;6.972;2022-10-16T05:21:21;6.77;;;2.87;;
11709;SDS011;5911;51.036;6.972;2022-10-16T05:23:49;9.20;;;2.67;;
11709;SDS011;5911;51.036;6.972;2022-10-16T05:26:17;6.47;;;2.67;;
11709;SDS011;5911;51.036;6.972;2022-10-16T05:28:45;2.70;;;2.30;;
11709;SDS011;5911;51.036;6.972;2022-10-16T05:31:12;3.90;;;2.30;;
11709;SDS011;5911;51.036;6.972;2022-10-16T05:33:40;5.60;;;2.80;;
11709;SDS011;5911;51.036;6.972;2022-10-16T05:36:11;5.70;;;2.50;;
11709;SDS011;5911;51.036;6.972;2022-10-16T05:38:39;4.57;;;2.60;;
11709;SDS011;5911;51.036;6.972;2022-10-16T05:41:07;3.67;;;2.30;;
11709;SDS011;5911;51.036;6.972;2022-10-16T05:43:35;4.93;;;2.20;;
11709;SDS011;5911;51.036;6.972;2022-10-16T05:46:03;4.03;;;2.50;;
11709;SDS011;5911;51.036;6.972;2022-10-16T05:48:32;6.23;;;2.50;;
11709;SDS011;5911;51.036;6.972;2022-10-16T05:51:01;5.73;;;2.30;;
11709;SDS011;5911;51.036;6.972;2022-10-16T05:53:33;5.73;;;2.60;;
11709;SDS011;5911;51.036;6.972;2022-10-16T05:56:03;10.47;;;2.80;;
11709;SDS011;5911;51.036;6.972;2022-10-16T05:58:36;4.33;;;2.73;;
11709;SDS011;5911;51.036;6.972;2022-10-16T06:01:07;4.17;;;2.30;;
11709;SDS011;5911;51.036;6.972;2022-10-16T06:03:37;6.30;;;2.80;;
11709;SDS011;5911;51.036;6.972;2022-10-16T06:06:08;7.90;;;3.23;;
11709;SDS011;5911;51.036;6.972;2022-10-16T06:08:39;8.73;;;3.30;;
11709;SDS011;5911;51.036;6.972;2022-10-16T06:11:07;3.73;;;2.80;;
11709;SDS011;5911;51.036;6.972;2022-10-16T06:13:37;6.27;;;3.50;;
11709;SDS011;5911;51.036;6.972;2022-10-16T06:16:10;8.70;;;3.40;;
11709;SDS011;5911;51.036;6.972;2022-10-16T06:18:39;8.10;;;3.67;;
11709;SDS011;5911;51.036;6.972;2022-10-16T06:21:07;9.43;;;4.50;;
11709;SDS011;5911;51.036;6.972;2022-10-16T06:23:36;6.53;;;3.27;;
11709;SDS011;5911;51.036;6.972;2022-10-16T06:26:08;6.87;;;3.83;;
11709;SDS011;5911;51.036;6.972;2022-10-16T06:28:37;10.67;;;4.03;;
11709;SDS011;5911;51.036;6.972;2022-10-16T06:31:06;7.97;;;3.63;;
11709;SDS011;5911;51.036;6.972;2022-10-16T06:33:34;6.60;;;3.27;;
11709;SDS011;5911;51.036;6.972;2022-10-16T06:36:04;6.27;;;3.47;;
11709;SDS011;5911;51.036;6.972;2022-10-16T06:38:34;7.00;;;2.90;;
11709;SDS011;5911;51.036;6.972;2022-10-16T06:41:04;3.47;;;2.70;;
11709;SDS011;5911;51.036;6.972;2022-10-16T06:43:33;2.83;;;1.90;;
11709;SDS011;5911;51.036;6.972;2022-10-16T06:46:02;2.53;;;2.00;;
11709;SDS011;5911;51.036;6.972;2022-10-16T06:48:30;5.00;;;1.50;;
11709;SDS011;5911;51.036;6.972;2022-10-16T06:50:59;4.50;;;2.10;;
11709;SDS011;5911;51.036;6.972;2022-10-16T06:53:33;1.80;;;1.70;;
11709;SDS011;5911;51.036;6.972;2022-10-16T06:56:16;3.83;;;1.93;;
11709;SDS011;5911;51.036;6.972;2022-10-16T06:58:45;1.87;;;1.50;;
11709;SDS011;5911;51.036;6.972;2022-10-16T07:01:14;2.25;;;1.90;;
11709;SDS011;5911;51.036;6.972;2022-10-16T07:03:44;2.30;;;2.10;;
11709;SDS011;5911;51.036;6.972;2022-10-16T07:06:16;2.13;;;1.70;;
11709;SDS011;5911;51.036;6.972;2022-10-16T07:08:45;5.47;;;2.10;;
11709;SDS011;5911;51.036;6.972;2022-10-16T07:11:16;3.57;;;2.20;;
11709;SDS011;5911;51.036;6.972;2022-10-16T07:13:46;1.97;;;1.80;;
11709;SDS011;5911;51.036;6.972;2022-10-16T07:16:20;2.55;;;2.10;;
11709;SDS011;5911;51.036;6.972;2022-10-16T07:18:53;2.10;;;1.90;;
11709;SDS011;5911;51.036;6.972;2022-10-16T07:21:25;2.17;;;1.97;;
11709;SDS011;5911;51.036;6.972;2022-10-16T07:23:55;2.70;;;1.77;;
11709;SDS011;5911;51.036;6.972;2022-10-16T07:26:26;3.97;;;1.65;;
11709;SDS011;5911;51.036;6.972;2022-10-16T07:28:56;2.00;;;1.90;;
11709;SDS011;5911;51.036;6.972;2022-10-16T07:31:24;2.10;;;1.90;;
11709;SDS011;5911;51.036;6.972;2022-10-16T07:33:52;2.07;;;1.97;;
11709;SDS011;5911;51.036;6.972;2022-10-16T07:36:20;4.23;;;1.80;;
11709;SDS011;5911;51.036;6.972;2022-10-16T07:38:48;4.40;;;2.13;;
11709;SDS011;5911;51.036;6.972;2022-10-16T07:41:22;2.17;;;1.97;;
11709;SDS011;5911;51.036;6.972;2022-10-16T07:43:52;2.77;;;2.33;;
11709;SDS011;5911;51.036;6.972;2022-10-16T07:46:21;2.90;;;2.17;;
11709;SDS011;5911;51.036;6.972;2022-10-16T07:48:50;3.47;;;1.87;;
11709;SDS011;5911;51.036;6.972;2022-10-16T07:51:18;4.10;;;2.27;;
11709;SDS011;5911;51.036;6.972;2022-10-16T07:53:48;2.57;;;2.10;;
11709;SDS011;5911;51.036;6.972;2022-10-16T07:56:16;2.13;;;2.03;;
11709;SDS011;5911;51.036;6.972;2022-10-16T07:58:45;2.27;;;2.07;;
11709;SDS011;5911;51.036;6.972;2022-10-16T08:01:14;4.13;;;2.33;;
11709;SDS011;5911;51.036;6.972;2022-10-16T08:03:44;2.73;;;1.80;;
11709;SDS011;5911;51.036;6.972;2022-10-16T08:06:13;1.87;;;1.67;;
11709;SDS011;5911;51.036;6.972;2022-10-16T08:08:41;2.40;;;1.77;;
11709;SDS011;5911;51.036;6.972;2022-10-16T08:11:10;4.80;;;1.87;;
11709;SDS011;5911;51.036;6.972;2022-10-16T08:13:38;1.93;;;1.77;;
11709;SDS011;5911;51.036;6.972;2022-10-16T08:16:06;3.63;;;1.60;;
11709;SDS011;5911;51.036;6.972;2022-10-16T08:18:37;1.40;;;1.23;;
11709;SDS011;5911;51.036;6.972;2022-10-16T08:21:06;1.47;;;1.20;;
11709;SDS011;5911;51.036;6.972;2022-10-16T08:23:36;1.63;;;1.10;;
11709;SDS011;5911;51.036;6.972;2022-10-16T08:26:05;2.92;;;1.10;;
11709;SDS011;5911;51.036;6.972;2022-10-16T08:28:34;1.83;;;1.00;;
11709;SDS011;5911;51.036;6.972;2022-10-16T08:31:07;2.78;;;1.20;;
11709;SDS011;5911;51.036;6.972;2022-10-16T08:33:37;1.77;;;1.10;;
11709;SDS011;5911;51.036;6.972;2022-10-16T08:36:05;3.83;;;0.95;;
11709;SDS011;5911;51.036;6.972;2022-10-16T08:38:33;1.40;;;0.80;;
11709;SDS011;5911;51.036;6.972;2022-10-16T08:41:19;1.87;;;1.07;;
11709;SDS011;5911;51.036;6.972;2022-10-16T08:44:02;1.65;;;1.30;;
11709;SDS011;5911;51.036;6.972;2022-10-16T08:46:49;2.40;;;1.13;;
11709;SDS011;5911;51.036;6.972;2022-10-16T08:49:25;1.77;;;0.90;;
11709;SDS011;5911;51.036;6.972;2022-10-16T08:51:53;1.80;;;1.10;;
11709;SDS011;5911;51.036;6.972;2022-10-16T08:54:26;1.75;;;1.00;;
11709;SDS011;5911;51.036;6.972;2022-10-16T08:56:57;0.93;;;0.80;;
11709;SDS011;5911;51.036;6.972;2022-10-16T08:59:34;2.53;;;1.17;;
11709;SDS011;5911;51.036;6.972;2022-10-16T09:02:03;3.03;;;1.10;;
11709;SDS011;5911;51.036;6.972;2022-10-16T09:04:56;2.27;;;1.10;;
11709;SDS011;5911;51.036;6.972;2022-10-16T09:07:34;1.33;;;0.93;;
11709;SDS011;5911;51.036;6.972;2022-10-16T09:10:11;2.95;;;1.45;;
11709;SDS011;5911;51.036;6.972;2022-10-16T09:12:52;2.23;;;1.07;;
11709;SDS011;5911;51.036;6.972;2022-10-16T09:15:27;1.10;;;1.00;;
11709;SDS011;5911;51.036;6.972;2022-10-16T09:18:00;2.13;;;1.05;;
11709;SDS011;5911;51.036;6.972;2022-10-16T09:20:50;2.20;;;1.00;;
11709;SDS011;5911;51.036;6.972;2022-10-16T09:23:25;2.67;;;1.15;;
11709;SDS011;5911;51.036;6.972;2022-10-16T09:25:54;2.03;;;0.90;;
11709;SDS011;5911;51.036;6.972;2022-10-16T09:28:24;2.17;;;0.70;;
11709;SDS011;5911;51.036;6.972;2022-10-16T09:30:52;2.50;;;1.00;;
11709;SDS011;5911;51.036;6.972;2022-10-16T09:33:21;2.53;;;1.03;;
11709;SDS011;5911;51.036;6.972;2022-10-16T09:35:54;1.45;;;0.90;;
11709;SDS011;5911;51.036;6.972;2022-10-16T09:38:26;3.63;;;1.08;;
11709;SDS011;5911;51.036;6.972;2022-10-16T09:40:55;1.30;;;0.70;;
11709;SDS011;5911;51.036;6.972;2022-10-16T09:43:31;0.63;;;0.63;;
11709;SDS011;5911;51.036;6.972;2022-10-16T09:46:03;1.52;;;0.88;;
11709;SDS011;5911;51.036;6.972;2022-10-16T09:51:03;1.33;;;0.90;;
11709;SDS011;5911;51.036;6.972;2022-10-16T09:53:39;1.70;;;0.50;;
11709;SDS011;5911;51.036;6.972;2022-10-16T09:56:10;4.63;;;1.00;;
11709;SDS011;5911;51.036;6.972;2022-10-16T09:58:43;1.10;;;0.60;;
11709;SDS011;5911;51.036;6.972;2022-10-16T10:01:17;1.85;;;0.70;;
11709;SDS011;5911;51.036;6.972;2022-10-16T10:03:47;2.22;;;0.68;;
11709;SDS011;5911;51.036;6.972;2022-10-16T10:06:19;0.80;;;0.70;;
11709;SDS011;5911;51.036;6.972;2022-10-16T10:08:56;2.35;;;0.82;;
11709;SDS011;5911;51.036;6.972;2022-10-16T10:11:37;0.68;;;0.47;;
11709;SDS011;5911;51.036;6.972;2022-10-16T10:14:06;2.80;;;0.80;;
11709;SDS011;5911;51.036;6.972;2022-10-16T10:16:41;1.73;;;0.80;;
11709;SDS011;5911;51.036;6.972;2022-10-16T10:19:12;1.33;;;0.80;;
11709;SDS011;5911;51.036;6.972;2022-10-16T10:21:43;1.55;;;0.57;;
11709;SDS011;5911;51.036;6.972;2022-10-16T10:24:11;1.33;;;0.50;;
11709;SDS011;5911;51.036;6.972;2022-10-16T10:26:41;1.15;;;0.50;;
11709;SDS011;5911;51.036;6.972;2022-10-16T10:29:17;0.85;;;0.60;;
11709;SDS011;5911;51.036;6.972;2022-10-16T10:31:57;1.60;;;0.95;;
11709;SDS011;5911;51.036;6.972;2022-10-16T10:34:39;2.10;;;0.60;;
11709;SDS011;5911;51.036;6.972;2022-10-16T10:37:30;1.33;;;0.60;;
11709;SDS011;5911;51.036;6.972;2022-10-16T10:40:11;1.77;;;0.68;;
11709;SDS011;5911;51.036;6.972;2022-10-16T10:42:48;2.17;;;0.60;;
11709;SDS011;5911;51.036;6.972;2022-10-16T10:45:23;1.00;;;0.40;;
11709;SDS011;5911;51.036;6.972;2022-10-16T10:48:00;1.03;;;0.50;;
11709;SDS011;5911;51.036;6.972;2022-10-16T10:50:39;1.35;;;0.75;;
11709;SDS011;5911;51.036;6.972;2022-10-16T10:53:17;1.20;;;0.75;;
11709;SDS011;5911;51.036;6.972;2022-10-16T10:55:52;1.60;;;0.70;;
11709;SDS011;5911;51.036;6.972;2022-10-16T10:58:31;1.85;;;0.75;;
11709;SDS011;5911;51.036;6.972;2022-10-16T11:01:10;0.50;;;0.50;;
11709;SDS011;5911;51.036;6.972;2022-10-16T11:03:54;0.57;;;0.47;;
11709;SDS011;5911;51.036;6.972;2022-10-16T11:06:32;2.17;;;0.70;;
11709;SDS011;5911;51.036;6.972;2022-10-16T11:09:09;1.77;;;0.50;;
11709;SDS011;5911;51.036;6.972;2022-10-16T11:11:43;1.65;;;0.68;;
11709;SDS011;5911;51.036;6.972;2022-10-16T11:14:22;1.40;;;0.60;;
11709;SDS011;5911;51.036;6.972;2022-10-16T11:16:54;1.65;;;0.63;;
11709;SDS011;5911;51.036;6.972;2022-10-16T11:19:29;1.40;;;0.55;;
11709;SDS011;5911;51.036;6.972;2022-10-16T11:22:03;1.50;;;0.70;;
11709;SDS011;5911;51.036;6.972;2022-10-16T11:24:42;2.20;;;0.90;;
11709;SDS011;5911;51.036;6.972;2022-10-16T11:27:15;1.02;;;0.55;;
11709;SDS011;5911;51.036;6.972;2022-10-16T11:29:53;2.80;;;0.77;;
11709;SDS011;5911;51.036;6.972;2022-10-16T11:32:31;1.77;;;0.80;;
11709;SDS011;5911;51.036;6.972;2022-10-16T11:35:02;1.50;;;0.55;;
11709;SDS011;5911;51.036;6.972;2022-10-16T11:37:39;0.88;;;0.65;;
11709;SDS011;5911;51.036;6.972;2022-10-16T11:40:17;1.63;;;0.50;;
11709;SDS011;5911;51.036;6.972;2022-10-16T11:42:54;1.48;;;0.70;;
11709;SDS011;5911;51.036;6.972;2022-10-16T11:45:29;0.88;;;0.60;;
11709;SDS011;5911;51.036;6.972;2022-10-16T11:48:05;4.68;;;0.90;;
11709;SDS011;5911;51.036;6.972;2022-10-16T11:50:45;1.55;;;0.70;;
11709;SDS011;5911;51.036;6.972;2022-10-16T11:53:21;1.83;;;0.70;;
11709;SDS011;5911;51.036;6.972;2022-10-16T11:55:58;3.50;;;0.73;;
11709;SDS011;5911;51.036;6.972;2022-10-16T11:58:27;1.42;;;0.45;;
11709;SDS011;5911;51.036;6.972;2022-10-16T12:01:02;1.00;;;0.70;;
11709;SDS011;5911;51.036;6.972;2022-10-16T12:03:43;1.95;;;0.60;;
11709;SDS011;5911;51.036;6.972;2022-10-16T12:06:22;1.27;;;0.60;;
11709;SDS011;5911;51.036;6.972;2022-10-16T12:08:57;2.15;;;0.60;;
11709;SDS011;5911;51.036;6.972;2022-10-16T12:11:37;0.88;;;0.65;;
11709;SDS011;5911;51.036;6.972;2022-10-16T12:14:07;2.58;;;0.80;;
11709;SDS011;5911;51.036;6.972;2022-10-16T12:16:53;2.25;;;0.50;;
11709;SDS011;5911;51.036;6.972;2022-10-16T12:19:23;2.17;;;0.75;;
11709;SDS011;5911;51.036;6.972;2022-10-16T12:21:54;1.60;;;0.52;;
11709;SDS011;5911;51.036;6.972;2022-10-16T12:24:32;2.25;;;0.85;;
11709;SDS011;5911;51.036;6.972;2022-10-16T12:27:04;2.13;;;0.77;;
11709;SDS011;5911;51.036;6.972;2022-10-16T12:29:36;0.90;;;0.70;;
11709;SDS011;5911;51.036;6.972;2022-10-16T12:32:06;1.02;;;0.70;;
11709;SDS011;5911;51.036;6.972;2022-10-16T12:35:17;1.95;;;0.70;;
11709;SDS011;5911;51.036;6.972;2022-10-16T12:37:47;2.40;;;0.90;;
11709;SDS011;5911;51.036;6.972;2022-10-16T12:40:23;1.25;;;0.80;;
11709;SDS011;5911;51.036;6.972;2022-10-16T12:42:57;2.97;;;0.63;;
11709;SDS011;5911;51.036;6.972;2022-10-16T12:45:26;4.88;;;2.40;;
11709;SDS011;5911;51.036;6.972;2022-10-16T12:47:56;2.58;;;1.20;;
11709;SDS011;5911;51.036;6.972;2022-10-16T12:50:32;2.75;;;1.17;;
11709;SDS011;5911;51.036;6.972;2022-10-16T12:53:02;2.17;;;0.95;;
11709;SDS011;5911;51.036;6.972;2022-10-16T12:55:33;2.92;;;0.90;;
11709;SDS011;5911;51.036;6.972;2022-10-16T12:58:15;2.15;;;0.70;;
11709;SDS011;5911;51.036;6.972;2022-10-16T13:00:56;1.33;;;0.60;;
11709;SDS011;5911;51.036;6.972;2022-10-16T13:06:28;4.28;;;1.50;;
11709;SDS011;5911;51.036;6.972;2022-10-16T13:12:15;2.22;;;0.80;;
11709;SDS011;5911;51.036;6.972;2022-10-16T13:15:00;3.08;;;0.85;;
11709;SDS011;5911;51.036;6.972;2022-10-16T13:17:49;2.40;;;1.00;;
11709;SDS011;5911;51.036;6.972;2022-10-16T13:20:26;2.75;;;0.80;;
11709;SDS011;5911;51.036;6.972;2022-10-16T13:23:03;1.95;;;0.55;;
11709;SDS011;5911;51.036;6.972;2022-10-16T13:25:47;1.67;;;0.63;;
11709;SDS011;5911;51.036;6.972;2022-10-16T13:28:27;0.93;;;0.60;;
11709;SDS011;5911;51.036;6.972;2022-10-16T13:30:59;2.20;;;1.00;;
11709;SDS011;5911;51.036;6.972;2022-10-16T13:33:30;3.55;;;0.80;;
11709;SDS011;5911;51.036;6.972;2022-10-16T13:36:01;1.77;;;0.77;;
11709;SDS011;5911;51.036;6.972;2022-10-16T13:38:30;2.38;;;1.08;;
11709;SDS011;5911;51.036;6.972;2022-10-16T13:41:00;1.30;;;0.70;;
11709;SDS011;5911;51.036;6.972;2022-10-16T13:43:31;1.33;;;0.52;;
11709;SDS011;5911;51.036;6.972;2022-10-16T13:46:03;3.85;;;1.00;;
11709;SDS011;5911;51.036;6.972;2022-10-16T13:48:32;1.40;;;0.80;;
11709;SDS011;5911;51.036;6.972;2022-10-16T13:51:05;1.67;;;0.98;;
11709;SDS011;5911;51.036;6.972;2022-10-16T13:53:38;1.27;;;0.60;;
11709;SDS011;5911;51.036;6.972;2022-10-16T13:56:09;3.10;;;0.70;;
11709;SDS011;5911;51.036;6.972;2022-10-16T13:58:38;1.38;;;0.70;;
11709;SDS011;5911;51.036;6.972;2022-10-16T14:01:16;2.30;;;0.80;;
11709;SDS011;5911;51.036;6.972;2022-10-16T14:03:47;1.73;;;0.95;;
11709;SDS011;5911;51.036;6.972;2022-10-16T14:06:16;2.45;;;0.90;;
11709;SDS011;5911;51.036;6.972;2022-10-16T14:08:48;2.23;;;1.07;;
11709;SDS011;5911;51.036;6.972;2022-10-16T14:11:20;2.45;;;1.10;;
11709;SDS011;5911;51.036;6.972;2022-10-16T14:13:49;2.70;;;1.08;;
11709;SDS011;5911;51.036;6.972;2022-10-16T14:16:20;3.45;;;1.10;;
11709;SDS011;5911;51.036;6.972;2022-10-16T14:18:52;2.55;;;1.00;;
11709;SDS011;5911;51.036;6.972;2022-10-16T14:21:24;1.73;;;0.80;;
11709;SDS011;5911;51.036;6.972;2022-10-16T14:23:53;1.93;;;1.03;;
11709;SDS011;5911;51.036;6.972;2022-10-16T14:26:22;2.67;;;0.93;;
11709;SDS011;5911;51.036;6.972;2022-10-16T14:29:03;3.67;;;1.20;;
11709;SDS011;5911;51.036;6.972;2022-10-16T14:31:41;4.00;;;1.20;;
11709;SDS011;5911;51.036;6.972;2022-10-16T14:34:29;1.77;;;1.10;;
11709;SDS011;5911;51.036;6.972;2022-10-16T14:36:59;3.93;;;0.90;;
11709;SDS011;5911;51.036;6.972;2022-10-16T14:39:38;2.03;;;0.80;;
11709;SDS011;5911;51.036;6.972;2022-10-16T14:42:11;1.97;;;0.80;;
11709;SDS011;5911;51.036;6.972;2022-10-16T14:44:43;3.60;;;0.90;;
11709;SDS011;5911;51.036;6.972;2022-10-16T14:47:13;1.63;;;0.82;;
11709;SDS011;5911;51.036;6.972;2022-10-16T14:49:48;1.85;;;1.00;;
11709;SDS011;5911;51.036;6.972;2022-10-16T14:52:16;1.17;;;1.00;;
11709;SDS011;5911;51.036;6.972;2022-10-16T14:54:47;1.13;;;0.73;;
11709;SDS011;5911;51.036;6.972;2022-10-16T14:57:16;1.77;;;0.93;;
11709;SDS011;5911;51.036;6.972;2022-10-16T14:59:45;1.40;;;1.10;;
11709;SDS011;5911;51.036;6.972;2022-10-16T15:02:18;4.97;;;1.45;;
11709;SDS011;5911;51.036;6.972;2022-10-16T15:04:52;1.17;;;0.93;;
11709;SDS011;5911;51.036;6.972;2022-10-16T15:07:20;1.60;;;1.00;;
11709;SDS011;5911;51.036;6.972;2022-10-16T15:09:48;1.00;;;1.00;;
11709;SDS011;5911;51.036;6.972;2022-10-16T15:12:16;0.67;;;0.53;;
11709;SDS011;5911;51.036;6.972;2022-10-16T15:14:44;3.80;;;0.90;;
11709;SDS011;5911;51.036;6.972;2022-10-16T15:17:11;2.90;;;1.40;;
11709;SDS011;5911;51.036;6.972;2022-10-16T15:19:45;1.67;;;0.87;;
11709;SDS011;5911;51.036;6.972;2022-10-16T15:22:13;3.30;;;1.10;;
11709;SDS011;5911;51.036;6.972;2022-10-16T15:24:41;2.10;;;1.30;;
11709;SDS011;5911;51.036;6.972;2022-10-16T15:27:08;1.83;;;1.00;;
11709;SDS011;5911;51.036;6.972;2022-10-16T15:29:36;2.33;;;1.30;;
11709;SDS011;5911;51.036;6.972;2022-10-16T15:32:04;2.03;;;1.20;;
11709;SDS011;5911;51.036;6.972;2022-10-16T15:34:32;2.20;;;1.23;;
11709;SDS011;5911;51.036;6.972;2022-10-16T15:37:03;1.25;;;1.15;;
11709;SDS011;5911;51.036;6.972;2022-10-16T15:39:31;2.47;;;1.70;;